Time;durP1;ratioP1;P1;durP2;ratioP2;P2;SDS_P1;SDS_P2;PMS_P1;PMS_P2;Temp;Humidity;BMP_temperature;BMP_pressure;BME280_temperature;BME280_humidity;BME280_pressure;Samples;Min_cycle;Max_cycle;Signal;HPM_P1;HPM_P2
2024/04/15 00:01:52;;;;;;;2.35;1.58;;;;;;;;;;4936774;28;20031;-74
2024/04/15 00:04:18;;;;;;;1.50;1.50;;;;;;;;;;4952429;28;20525;-74
2024/04/15 00:06:44;;;;;;;1.48;1.38;;;;;;;;;;4936524;29;20461;-75
2024/04/15 00:09:10;;;;;;;1.52;1.50;;;;;;;;;;4936089;29;20126;-75
2024/04/15 00:11:35;;;;;;;1.75;1.65;;;;;;;;;;4953575;28;20031;-74
2024/04/15 00:14:01;;;;;;;1.70;1.60;;;;;;;;;;4935442;29;20059;-75
2024/04/15 00:16:27;;;;;;;1.80;1.70;;;;;;;;;;4953247;28;20492;-74
2024/04/15 00:18:53;;;;;;;1.80;1.70;;;;;;;;;;4951984;28;20487;-74
2024/04/15 00:21:19;;;;;;;2.75;2.00;;;;;;;;;;4952981;28;20035;-75
2024/04/15 00:23:45;;;;;;;1.33;1.23;;;;;;;;;;4952485;28;20074;-74
2024/04/15 00:26:11;;;;;;;0.90;0.90;;;;;;;;;;4935933;29;20054;-75
2024/04/15 00:28:37;;;;;;;1.33;1.33;;;;;;;;;;4952964;28;20035;-74
2024/04/15 00:31:03;;;;;;;1.17;1.17;;;;;;;;;;4952201;28;20035;-75
2024/04/15 00:33:29;;;;;;;1.65;1.63;;;;;;;;;;4952199;28;20103;-75
2024/04/15 00:35:54;;;;;;;1.73;1.40;;;;;;;;;;4953077;28;20085;-75
2024/04/15 00:38:20;;;;;;;1.27;1.27;;;;;;;;;;4952320;28;20150;-75
2024/04/15 00:40:47;;;;;;;0.95;0.95;;;;;;;;;;4953059;28;20043;-74
2024/04/15 00:43:13;;;;;;;1.08;1.08;;;;;;;;;;4934588;29;20048;-74
2024/04/15 00:45:39;;;;;;;1.88;1.52;;;;;;;;;;4952860;28;20134;-74
2024/04/15 00:48:05;;;;;;;1.50;1.40;;;;;;;;;;4952740;28;20504;-74
2024/04/15 00:50:32;;;;;;;1.83;1.73;;;;;;;;;;4935406;29;20031;-75
2024/04/15 00:52:58;;;;;;;2.22;1.70;;;;;;;;;;4934753;29;20105;-74
2024/04/15 00:55:24;;;;;;;1.02;1.02;;;;;;;;;;4935567;28;20137;-75
2024/04/15 00:57:50;;;;;;;1.88;1.77;;;;;;;;;;4935489;28;20500;-74
2024/04/15 01:00:16;;;;;;;2.97;1.60;;;;;;;;;;4903922;29;20086;-73
2024/04/15 01:02:42;;;;;;;2.55;1.63;;;;;;;;;;4934559;29;20075;-75
2024/04/15 01:05:09;;;;;;;1.80;1.70;;;;;;;;;;4935520;29;20105;-75
2024/04/15 01:07:36;;;;;;;1.58;1.48;;;;;;;;;;4952642;28;20073;-75
2024/04/15 01:10:05;;;;;;;1.95;1.48;;;;;;;;;;4952347;28;20043;-75
2024/04/15 01:12:31;;;;;;;1.35;1.35;;;;;;;;;;4919589;28;20082;-74
2024/04/15 01:14:57;;;;;;;1.63;1.52;;;;;;;;;;4951709;28;20590;-75
2024/04/15 01:17:23;;;;;;;0.88;0.88;;;;;;;;;;4935311;29;20039;-74
2024/04/15 01:19:48;;;;;;;1.30;1.17;;;;;;;;;;4952174;28;20420;-75
2024/04/15 01:22:16;;;;;;;1.55;1.40;;;;;;;;;;4935115;29;20083;-75
2024/04/15 01:24:42;;;;;;;2.65;1.60;;;;;;;;;;4949953;28;20524;-75
2024/04/15 01:27:08;;;;;;;3.13;1.42;;;;;;;;;;4935257;29;20074;-75
2024/04/15 01:29:33;;;;;;;2.33;1.45;;;;;;;;;;4935014;28;20039;-75
2024/04/15 01:31:59;;;;;;;2.35;1.70;;;;;;;;;;4952125;28;20039;-74
2024/04/15 01:34:25;;;;;;;1.05;1.05;;;;;;;;;;4951281;28;20579;-74
2024/04/15 01:36:51;;;;;;;1.75;1.27;;;;;;;;;;4952284;28;20047;-74
2024/04/15 01:39:17;;;;;;;2.03;1.33;;;;;;;;;;4951644;28;20059;-75
2024/04/15 01:41:43;;;;;;;1.27;1.27;;;;;;;;;;4919243;28;20031;-74
2024/04/15 01:44:09;;;;;;;1.48;1.38;;;;;;;;;;4949741;28;20153;-74
2024/04/15 01:46:35;;;;;;;2.92;1.30;;;;;;;;;;4952046;28;20123;-74
2024/04/15 01:49:01;;;;;;;1.27;1.20;;;;;;;;;;4951826;28;20058;-75
2024/04/15 01:51:27;;;;;;;1.27;1.27;;;;;;;;;;4953475;28;20126;-77
2024/04/15 01:53:52;;;;;;;1.92;1.33;;;;;;;;;;4952938;28;20102;-74
2024/04/15 01:56:19;;;;;;;1.40;1.30;;;;;;;;;;4952948;28;20043;-74
2024/04/15 01:58:45;;;;;;;1.35;1.35;;;;;;;;;;4951724;28;20436;-76
2024/04/15 02:01:10;;;;;;;1.30;1.30;;;;;;;;;;4952091;29;20035;-76
2024/04/15 02:03:36;;;;;;;2.38;1.77;;;;;;;;;;4951080;29;20059;-74
2024/04/15 02:06:02;;;;;;;1.15;1.05;;;;;;;;;;4918706;29;20093;-75
2024/04/15 02:08:29;;;;;;;1.30;1.20;;;;;;;;;;4950561;29;20142;-75
2024/04/15 02:10:55;;;;;;;1.30;1.30;;;;;;;;;;4951956;29;20615;-75
2024/04/15 02:13:21;;;;;;;2.10;1.40;;;;;;;;;;4950698;29;20439;-75
2024/04/15 02:15:46;;;;;;;3.20;2.05;;;;;;;;;;4934818;29;20078;-75
2024/04/15 02:18:12;;;;;;;1.13;1.13;;;;;;;;;;4951446;29;20134;-75
2024/04/15 02:20:40;;;;;;;1.92;1.23;;;;;;;;;;4951849;29;20042;-76
2024/04/15 02:23:05;;;;;;;1.20;1.20;;;;;;;;;;4934041;29;20055;-77
2024/04/15 02:25:31;;;;;;;1.27;1.15;;;;;;;;;;4934417;29;20031;-78
2024/04/15 02:27:57;;;;;;;1.52;1.42;;;;;;;;;;4951751;29;20043;-76
2024/04/15 02:30:23;;;;;;;1.08;1.08;;;;;;;;;;4951423;29;20035;-77
2024/04/15 02:32:49;;;;;;;2.42;1.08;;;;;;;;;;4951046;29;20424;-76
2024/04/15 02:35:15;;;;;;;1.17;1.15;;;;;;;;;;4951392;29;20094;-75
2024/04/15 02:37:41;;;;;;;1.02;1.02;;;;;;;;;;4951360;29;20126;-75
2024/04/15 02:40:07;;;;;;;2.40;1.38;;;;;;;;;;4934479;29;20066;-75
2024/04/15 02:42:33;;;;;;;0.73;0.73;;;;;;;;;;4934281;29;20499;-76
2024/04/15 02:44:59;;;;;;;1.42;1.33;;;;;;;;;;4950511;29;20492;-75
2024/04/15 02:47:24;;;;;;;1.38;1.27;;;;;;;;;;4951229;29;20039;-76
2024/04/15 02:49:50;;;;;;;1.77;1.30;;;;;;;;;;4951493;29;20098;-77
2024/04/15 02:52:16;;;;;;;1.60;1.50;;;;;;;;;;4951251;28;20058;-75
2024/04/15 02:54:42;;;;;;;2.28;1.77;;;;;;;;;;4953207;29;20042;-76
2024/04/15 02:57:08;;;;;;;1.75;1.17;;;;;;;;;;4954760;29;20039;-76
2024/04/15 02:59:34;;;;;;;1.27;1.20;;;;;;;;;;4949645;28;20047;-77
2024/04/15 03:02:00;;;;;;;5.63;1.73;;;;;;;;;;4951545;28;20042;-76
2024/04/15 03:04:25;;;;;;;2.45;1.50;;;;;;;;;;4958092;28;20043;-75
2024/04/15 03:06:54;;;;;;;1.88;1.60;;;;;;;;;;4946718;28;20451;-76
2024/04/15 03:09:22;;;;;;;2.00;1.10;;;;;;;;;;4943838;28;20146;-75
2024/04/15 03:11:48;;;;;;;1.27;1.17;;;;;;;;;;4943940;28;20031;-75
2024/04/15 03:14:14;;;;;;;1.52;1.42;;;;;;;;;;4942498;28;20409;-75
2024/04/15 03:16:42;;;;;;;1.58;1.48;;;;;;;;;;4936765;29;20035;-75
2024/04/15 03:19:08;;;;;;;1.80;1.55;;;;;;;;;;4954539;28;20154;-75
2024/04/15 03:21:34;;;;;;;4.13;2.03;;;;;;;;;;4947445;28;20039;-76
2024/04/15 03:23:59;;;;;;;1.70;1.60;;;;;;;;;;4944600;28;20046;-75
2024/04/15 03:26:25;;;;;;;5.00;1.45;;;;;;;;;;4926915;29;20076;-74
2024/04/15 03:28:51;;;;;;;1.63;1.52;;;;;;;;;;4944723;28;20042;-75
2024/04/15 03:31:17;;;;;;;1.38;1.27;;;;;;;;;;4940977;28;20093;-76
2024/04/15 03:33:43;;;;;;;1.67;1.52;;;;;;;;;;4910907;28;20035;-78
2024/04/15 03:36:09;;;;;;;7.93;1.40;;;;;;;;;;4937948;28;20047;-77
2024/04/15 03:38:34;;;;;;;1.17;1.17;;;;;;;;;;4927170;28;20443;-78
2024/04/15 03:41:00;;;;;;;2.40;1.63;;;;;;;;;;4913582;29;20051;-78
2024/04/15 03:43:26;;;;;;;4.30;2.20;;;;;;;;;;4932243;28;20524;-77
2024/04/15 03:45:55;;;;;;;3.60;2.55;;;;;;;;;;4952752;28;20035;-77
2024/04/15 03:48:21;;;;;;;2.60;2.00;;;;;;;;;;4951132;28;20040;-77
2024/04/15 03:50:46;;;;;;;2.33;1.85;;;;;;;;;;4965020;28;20047;-78
2024/04/15 03:53:12;;;;;;;2.03;1.92;;;;;;;;;;4951747;28;20122;-77
2024/04/15 03:55:38;;;;;;;2.35;2.13;;;;;;;;;;4951512;28;20035;-79
2024/04/15 03:58:04;;;;;;;3.72;2.30;;;;;;;;;;4956440;28;20520;-78
2024/04/15 04:00:30;;;;;;;1.90;1.80;;;;;;;;;;4953352;28;20070;-79
2024/04/15 04:02:56;;;;;;;2.17;2.08;;;;;;;;;;4954352;28;20031;-79
2024/04/15 04:05:21;;;;;;;4.03;2.53;;;;;;;;;;4946301;28;20031;-78
2024/04/15 04:07:48;;;;;;;1.92;1.83;;;;;;;;;;4948172;29;20031;-78
2024/04/15 04:10:14;;;;;;;3.05;2.80;;;;;;;;;;4950656;28;20045;-77
2024/04/15 04:12:40;;;;;;;6.05;3.75;;;;;;;;;;4954406;28;20046;-78
2024/04/15 04:15:06;;;;;;;4.07;3.17;;;;;;;;;;4928069;28;20040;-78
2024/04/15 04:17:32;;;;;;;6.72;3.47;;;;;;;;;;4943721;28;20059;-78
2024/04/15 04:19:58;;;;;;;2.95;2.75;;;;;;;;;;4939324;28;20425;-77
2024/04/15 04:22:23;;;;;;;5.10;2.85;;;;;;;;;;4946988;28;20395;-79
2024/04/15 04:24:49;;;;;;;3.28;2.97;;;;;;;;;;4932316;29;20513;-80
2024/04/15 04:27:15;;;;;;;3.08;2.72;;;;;;;;;;4947614;28;20117;-81
2024/04/15 04:29:41;;;;;;;3.78;2.75;;;;;;;;;;4952128;28;20054;-80
2024/04/15 04:32:07;;;;;;;6.75;3.03;;;;;;;;;;4953787;29;20126;-81
2024/04/15 04:34:36;;;;;;;5.97;2.53;;;;;;;;;;4952232;28;20484;-81
2024/04/15 04:37:02;;;;;;;4.10;3.00;;;;;;;;;;4954965;28;20197;-80
2024/04/15 04:39:27;;;;;;;4.45;2.55;;;;;;;;;;4953728;28;20551;-81
2024/04/15 04:41:53;;;;;;;3.00;2.70;;;;;;;;;;4932026;29;20424;-80
2024/04/15 04:44:19;;;;;;;1.80;1.70;;;;;;;;;;4949722;28;20059;-79
2024/04/15 04:46:48;;;;;;;2.55;2.35;;;;;;;;;;4941233;29;20085;-78
2024/04/15 04:49:14;;;;;;;2.45;2.25;;;;;;;;;;4952915;28;20046;-80
2024/04/15 04:51:40;;;;;;;3.55;2.00;;;;;;;;;;4957041;29;20035;-78
2024/04/15 04:54:06;;;;;;;2.13;1.98;;;;;;;;;;4940738;29;20050;-79
2024/04/15 04:56:32;;;;;;;1.80;1.70;;;;;;;;;;4940806;29;20035;-78
2024/04/15 04:58:58;;;;;;;3.42;1.80;;;;;;;;;;4951536;28;20043;-78
2024/04/15 05:01:24;;;;;;;3.72;1.92;;;;;;;;;;4959043;28;20051;-78
2024/04/15 05:03:50;;;;;;;3.40;1.50;;;;;;;;;;4929279;29;20055;-78
2024/04/15 05:06:17;;;;;;;2.58;2.10;;;;;;;;;;4942268;29;20035;-78
2024/04/15 05:08:43;;;;;;;2.13;1.60;;;;;;;;;;4938103;29;20392;-80
2024/04/15 05:11:08;;;;;;;4.65;1.88;;;;;;;;;;4948596;29;20126;-76
2024/04/15 05:13:34;;;;;;;1.70;1.60;;;;;;;;;;4944501;28;20063;-75
2024/04/15 05:16:04;;;;;;;1.80;1.70;;;;;;;;;;4949695;28;20035;-77
2024/04/15 05:18:30;;;;;;;6.38;1.63;;;;;;;;;;4942762;28;20035;-74
2024/04/15 05:20:56;;;;;;;3.63;1.95;;;;;;;;;;4945733;28;20720;-75
2024/04/15 05:23:21;;;;;;;6.43;1.98;;;;;;;;;;4948186;28;20039;-75
2024/04/15 05:25:47;;;;;;;2.30;2.05;;;;;;;;;;4949567;28;20038;-76
2024/04/15 05:28:13;;;;;;;5.10;1.70;;;;;;;;;;4949093;28;20043;-77
2024/04/15 05:30:39;;;;;;;3.83;2.20;;;;;;;;;;4950300;28;20554;-77
2024/04/15 05:33:05;;;;;;;1.80;1.50;;;;;;;;;;4955623;28;20035;-77
2024/04/15 05:35:31;;;;;;;1.33;1.23;;;;;;;;;;4953632;28;20038;-78
2024/04/15 05:37:56;;;;;;;3.05;1.63;;;;;;;;;;4930994;28;20040;-77
2024/04/15 05:40:22;;;;;;;1.08;1.05;;;;;;;;;;4947807;28;20484;-77
2024/04/15 05:42:48;;;;;;;3.45;2.08;;;;;;;;;;4915691;29;20066;-77
2024/04/15 05:45:14;;;;;;;2.05;1.25;;;;;;;;;;4944754;29;20043;-77
2024/04/15 05:47:40;;;;;;;2.65;1.80;;;;;;;;;;4950140;28;20130;-77
2024/04/15 05:50:06;;;;;;;1.65;1.42;;;;;;;;;;4949253;29;20035;-77
2024/04/15 05:52:32;;;;;;;8.50;1.60;;;;;;;;;;4949747;28;20476;-78
2024/04/15 05:54:58;;;;;;;4.40;1.70;;;;;;;;;;4949726;28;20047;-77
2024/04/15 05:57:23;;;;;;;3.25;1.60;;;;;;;;;;4950701;28;20089;-78
2024/04/15 05:59:49;;;;;;;2.28;1.60;;;;;;;;;;4938328;28;20085;-77
2024/04/15 06:02:15;;;;;;;5.75;1.98;;;;;;;;;;4947500;29;20032;-77
2024/04/15 06:04:41;;;;;;;3.13;1.65;;;;;;;;;;4949341;28;20640;-78
2024/04/15 06:07:07;;;;;;;3.30;1.40;;;;;;;;;;4949572;29;20031;-77
2024/04/15 06:09:36;;;;;;;1.88;1.60;;;;;;;;;;4937843;29;20114;-77
2024/04/15 06:12:02;;;;;;;2.90;1.77;;;;;;;;;;4950257;29;20024;-77
2024/04/15 06:14:28;;;;;;;2.20;1.05;;;;;;;;;;4939056;29;20054;-78
2024/04/15 06:16:53;;;;;;;3.08;1.60;;;;;;;;;;4950627;28;20034;-77
2024/04/15 06:19:19;;;;;;;1.92;1.60;;;;;;;;;;4948735;29;20544;-77
2024/04/15 06:21:45;;;;;;;1.95;1.20;;;;;;;;;;4950030;28;20043;-77
2024/04/15 06:24:11;;;;;;;12.95;1.60;;;;;;;;;;4948909;28;20118;-77
2024/04/15 06:26:37;;;;;;;2.38;1.40;;;;;;;;;;4949488;29;20102;-77
2024/04/15 06:29:03;;;;;;;2.65;1.48;;;;;;;;;;4945838;28;20049;-77
2024/04/15 06:31:29;;;;;;;2.17;1.60;;;;;;;;;;4949793;29;20035;-76
2024/04/15 06:33:55;;;;;;;1.63;1.30;;;;;;;;;;4953043;28;20079;-77
2024/04/15 06:36:21;;;;;;;2.58;1.85;;;;;;;;;;4953510;28;20069;-77
2024/04/15 06:38:47;;;;;;;3.67;1.75;;;;;;;;;;4953339;28;20520;-78
2024/04/15 06:41:14;;;;;;;2.33;1.90;;;;;;;;;;4953483;28;20539;-79
2024/04/15 06:43:40;;;;;;;3.00;1.70;;;;;;;;;;4952924;28;20047;-78
2024/04/15 06:46:06;;;;;;;5.70;1.75;;;;;;;;;;4942607;29;20095;-78
2024/04/15 06:48:31;;;;;;;1.63;1.42;;;;;;;;;;4936957;28;20512;-78
2024/04/15 06:50:57;;;;;;;1.23;1.17;;;;;;;;;;4954188;28;20464;-77
2024/04/15 06:53:23;;;;;;;1.95;1.30;;;;;;;;;;4954222;28;20043;-79
2024/04/15 06:55:51;;;;;;;3.47;1.02;;;;;;;;;;4949972;28;20118;-79
2024/04/15 06:58:17;;;;;;;1.85;1.30;;;;;;;;;;4963893;28;20133;-79
2024/04/15 07:00:43;;;;;;;3.42;2.22;;;;;;;;;;4966416;28;20082;-78
2024/04/15 07:03:09;;;;;;;3.47;1.55;;;;;;;;;;4938314;29;20056;-78
2024/04/15 07:05:34;;;;;;;4.53;1.90;;;;;;;;;;4952857;28;20038;-78
2024/04/15 07:08:01;;;;;;;1.73;1.30;;;;;;;;;;4957348;28;20038;-79
2024/04/15 07:10:27;;;;;;;1.13;1.10;;;;;;;;;;4956052;28;20031;-78
2024/04/15 07:12:52;;;;;;;2.40;1.35;;;;;;;;;;4954159;28;20031;-78
2024/04/15 07:15:18;;;;;;;2.50;1.40;;;;;;;;;;4954828;28;20035;-77
2024/04/15 07:17:44;;;;;;;2.70;1.65;;;;;;;;;;4953937;28;20443;-76
2024/04/15 07:20:10;;;;;;;1.50;1.40;;;;;;;;;;4953404;29;20050;-78
2024/04/15 07:22:36;;;;;;;5.07;1.70;;;;;;;;;;4935490;29;20031;-79
2024/04/15 07:25:04;;;;;;;5.82;1.77;;;;;;;;;;4943616;29;20427;-78
2024/04/15 07:27:32;;;;;;;1.92;1.27;;;;;;;;;;4953313;29;20093;-78
2024/04/15 07:29:57;;;;;;;5.15;1.60;;;;;;;;;;4940083;28;20037;-76
2024/04/15 07:32:23;;;;;;;3.20;1.42;;;;;;;;;;4938257;29;20482;-77
2024/04/15 07:34:49;;;;;;;3.80;1.52;;;;;;;;;;4944173;29;20139;-76
2024/04/15 07:37:15;;;;;;;2.95;1.60;;;;;;;;;;4916480;29;20034;-77
2024/04/15 07:39:47;;;;;;;2.95;2.38;;;;;;;;;;4923541;28;20062;-77
2024/04/15 07:42:13;;;;;;;6.35;1.52;;;;;;;;;;4952537;29;20046;-76
2024/04/15 07:44:39;;;;;;;2.25;1.60;;;;;;;;;;4948942;28;20047;-77
2024/04/15 07:47:05;;;;;;;4.57;1.65;;;;;;;;;;4952986;28;20042;-76
2024/04/15 07:49:31;;;;;;;2.65;1.90;;;;;;;;;;4952449;28;20487;-76
2024/04/15 07:51:56;;;;;;;2.78;1.45;;;;;;;;;;4947626;29;20043;-76
2024/04/15 07:54:22;;;;;;;3.55;1.48;;;;;;;;;;4945536;29;20058;-77
2024/04/15 07:56:48;;;;;;;2.35;1.40;;;;;;;;;;4959091;28;20385;-76
2024/04/15 07:59:14;;;;;;;4.75;1.50;;;;;;;;;;4931906;29;20106;-76
2024/04/15 08:01:40;;;;;;;4.72;1.45;;;;;;;;;;4933527;28;20040;-76
2024/04/15 08:04:06;;;;;;;3.35;1.33;;;;;;;;;;4934373;29;20098;-76
2024/04/15 08:06:32;;;;;;;2.30;1.52;;;;;;;;;;4934516;29;20063;-77
2024/04/15 08:08:58;;;;;;;2.13;1.63;;;;;;;;;;4951710;28;20039;-76
2024/04/15 08:11:24;;;;;;;3.70;1.63;;;;;;;;;;4952083;28;20151;-77
2024/04/15 08:13:50;;;;;;;4.53;1.70;;;;;;;;;;4950927;28;20637;-76
2024/04/15 08:16:16;;;;;;;2.95;1.92;;;;;;;;;;4935377;28;20043;-77
2024/04/15 08:18:42;;;;;;;4.13;1.88;;;;;;;;;;4951511;28;20054;-76
2024/04/15 08:21:08;;;;;;;3.35;1.55;;;;;;;;;;4943293;28;20987;-77
2024/04/15 08:23:34;;;;;;;6.68;1.83;;;;;;;;;;4950725;28;20540;-76
2024/04/15 08:26:00;;;;;;;2.83;1.42;;;;;;;;;;4952072;28;20035;-77
2024/04/15 08:28:25;;;;;;;1.52;1.42;;;;;;;;;;4959181;28;20041;-76
2024/04/15 08:30:51;;;;;;;5.60;1.80;;;;;;;;;;4951739;28;20047;-76
2024/04/15 08:33:17;;;;;;;3.92;1.52;;;;;;;;;;4950884;28;20077;-77
2024/04/15 08:35:43;;;;;;;4.38;1.70;;;;;;;;;;4949968;28;20031;-76
2024/04/15 17:22:11;;;;;;;2.55;1.45;;;;;;;;;;4960734;28;20089;-76
2024/04/15 17:24:37;;;;;;;2.03;1.13;;;;;;;;;;4959788;28;20856;-78
2024/04/15 17:27:04;;;;;;;1.58;1.48;;;;;;;;;;4967744;28;20134;-76
2024/04/15 17:29:30;;;;;;;1.50;1.40;;;;;;;;;;4952030;28;20074;-76
2024/04/15 17:31:56;;;;;;;1.35;1.20;;;;;;;;;;4933803;28;20420;-77
2024/04/15 17:34:25;;;;;;;1.17;1.10;;;;;;;;;;4951940;28;20639;-78
2024/04/15 17:36:59;;;;;;;1.75;1.65;;;;;;;;;;4934049;28;20125;-77
2024/04/15 17:39:25;;;;;;;1.58;1.27;;;;;;;;;;4949975;28;20057;-77
2024/04/15 17:41:51;;;;;;;3.22;1.80;;;;;;;;;;4950290;28;20043;-79
2024/04/15 17:44:17;;;;;;;1.20;1.10;;;;;;;;;;4955982;28;20095;-76
2024/04/15 17:46:43;;;;;;;1.05;0.95;;;;;;;;;;4946646;28;20491;-78
2024/04/15 17:49:09;;;;;;;3.65;1.33;;;;;;;;;;4965570;28;20061;-76
2024/04/15 17:51:35;;;;;;;1.10;1.10;;;;;;;;;;4967121;28;20038;-76
2024/04/15 17:54:01;;;;;;;1.17;1.13;;;;;;;;;;4967050;28;20424;-75
2024/04/15 17:56:27;;;;;;;1.48;1.38;;;;;;;;;;4962706;28;20039;-74
2024/04/15 17:58:53;;;;;;;1.45;1.35;;;;;;;;;;4962149;28;20112;-78
2024/04/15 18:01:19;;;;;;;0.95;0.95;;;;;;;;;;4960530;28;20422;-78
2024/04/15 18:03:47;;;;;;;2.80;1.50;;;;;;;;;;4944936;28;20055;-80
2024/04/15 18:06:32;;;;;;;1.40;1.20;;;;;;;;;;4964477;28;20524;-78
2024/04/15 18:08:58;;;;;;;1.00;1.00;;;;;;;;;;4954488;28;21201;-76
2024/04/15 18:11:25;;;;;;;2.67;1.40;;;;;;;;;;4950253;28;20768;-79
2024/04/15 18:13:52;;;;;;;2.58;1.60;;;;;;;;;;4963503;28;20055;-77
2024/04/15 18:16:18;;;;;;;1.80;1.70;;;;;;;;;;4945567;28;20154;-77
2024/04/15 18:18:44;;;;;;;3.80;1.88;;;;;;;;;;4954689;28;20042;-76
2024/04/15 18:21:10;;;;;;;2.20;1.67;;;;;;;;;;4940796;28;20929;-78
2024/04/15 18:23:36;;;;;;;2.60;2.10;;;;;;;;;;4920652;29;20055;-77
2024/04/15 18:26:03;;;;;;;1.70;1.60;;;;;;;;;;4933752;29;20047;-79
2024/04/15 18:28:28;;;;;;;1.48;1.38;;;;;;;;;;4928369;28;20138;-80
2024/04/15 18:30:54;;;;;;;1.98;1.88;;;;;;;;;;4908528;29;20118;-76
2024/04/15 18:33:20;;;;;;;2.10;1.70;;;;;;;;;;4926853;29;20803;-75
2024/04/15 18:35:46;;;;;;;1.83;1.73;;;;;;;;;;4931485;28;20062;-74
2024/04/15 18:38:15;;;;;;;1.13;1.13;;;;;;;;;;4946988;29;20074;-74
2024/04/15 18:40:42;;;;;;;2.58;1.50;;;;;;;;;;4944115;29;20055;-75
2024/04/15 18:43:08;;;;;;;2.88;1.67;;;;;;;;;;4946984;28;20048;-76
2024/04/15 18:45:34;;;;;;;1.48;1.40;;;;;;;;;;4945542;29;20044;-77
2024/04/15 18:48:01;;;;;;;1.00;1.00;;;;;;;;;;4934126;29;20146;-76
2024/04/15 18:50:29;;;;;;;2.08;1.75;;;;;;;;;;4948961;29;20599;-76
2024/04/15 18:52:59;;;;;;;1.42;1.33;;;;;;;;;;4931516;29;20123;-78
2024/04/15 18:55:28;;;;;;;0.90;0.90;;;;;;;;;;4944188;28;20044;-78
2024/04/15 18:57:54;;;;;;;1.48;1.05;;;;;;;;;;4909776;29;20392;-77
2024/04/15 19:00:20;;;;;;;3.53;1.13;;;;;;;;;;4938198;28;20047;-77
2024/04/15 19:02:46;;;;;;;1.67;1.13;;;;;;;;;;4932295;29;20043;-77
2024/04/15 19:05:12;;;;;;;1.25;0.90;;;;;;;;;;4934740;29;20050;-78
2024/04/15 19:07:37;;;;;;;1.00;1.00;;;;;;;;;;4928803;29;20178;-78
2024/04/15 19:10:03;;;;;;;0.95;0.95;;;;;;;;;;4949950;29;20042;-78
2024/04/15 19:12:31;;;;;;;1.00;1.00;;;;;;;;;;4932707;29;20039;-79
2024/04/15 19:14:57;;;;;;;0.73;0.73;;;;;;;;;;4949065;29;20051;-79
2024/04/15 19:17:22;;;;;;;0.82;0.82;;;;;;;;;;4932485;29;20540;-78
2024/04/15 19:19:50;;;;;;;0.98;0.98;;;;;;;;;;4928584;29;20531;-77
2024/04/15 19:22:16;;;;;;;1.00;1.00;;;;;;;;;;4934285;28;20101;-78
2024/04/15 19:24:42;;;;;;;1.33;1.20;;;;;;;;;;4955851;28;20054;-78
2024/04/15 19:27:07;;;;;;;1.30;1.20;;;;;;;;;;4967358;28;20031;-78
2024/04/15 19:29:34;;;;;;;1.10;1.10;;;;;;;;;;4937192;28;20421;-79
2024/04/15 19:31:59;;;;;;;1.95;1.00;;;;;;;;;;4967997;28;20054;-77
2024/04/15 19:34:25;;;;;;;1.27;1.13;;;;;;;;;;4960110;28;20626;-77
2024/04/15 19:36:51;;;;;;;1.23;1.20;;;;;;;;;;4972535;28;20047;-77
2024/04/15 19:39:17;;;;;;;0.95;0.95;;;;;;;;;;4970028;28;20058;-77
2024/04/15 19:41:45;;;;;;;0.90;0.90;;;;;;;;;;4949007;28;20068;-76
2024/04/15 19:44:11;;;;;;;1.10;1.10;;;;;;;;;;4959536;28;20059;-77
2024/04/15 19:46:36;;;;;;;2.67;0.90;;;;;;;;;;4966832;28;20039;-76
2024/04/15 19:49:02;;;;;;;1.65;1.33;;;;;;;;;;4951061;28;20047;-77
2024/04/15 19:51:28;;;;;;;0.90;0.90;;;;;;;;;;4957975;28;21270;-76
2024/04/15 19:53:54;;;;;;;0.85;0.85;;;;;;;;;;4956726;28;20113;-76
2024/04/15 19:56:20;;;;;;;1.10;1.10;;;;;;;;;;4950750;28;20035;-78
2024/04/15 19:58:46;;;;;;;1.13;1.10;;;;;;;;;;4952041;28;20428;-78
2024/04/15 20:01:11;;;;;;;1.35;1.10;;;;;;;;;;4969087;28;20916;-81
2024/04/15 20:03:37;;;;;;;1.15;1.15;;;;;;;;;;4955523;28;20061;-80
2024/04/15 20:06:05;;;;;;;1.10;1.00;;;;;;;;;;4971882;28;20047;-80
2024/04/15 20:08:32;;;;;;;1.75;0.95;;;;;;;;;;4971305;28;20046;-83
2024/04/15 20:10:57;;;;;;;1.38;1.35;;;;;;;;;;4979150;28;20050;-79
2024/04/15 20:13:26;;;;;;;0.80;0.80;;;;;;;;;;4970719;28;20044;-80
2024/04/15 20:15:52;;;;;;;1.13;1.02;;;;;;;;;;4967456;28;20109;-73
2024/04/15 20:18:22;;;;;;;1.13;1.08;;;;;;;;;;4951546;28;20042;-77
2024/04/15 20:20:48;;;;;;;0.85;0.85;;;;;;;;;;4957743;28;20067;-79
2024/04/15 20:23:15;;;;;;;1.08;1.08;;;;;;;;;;4954091;29;20051;-79
2024/04/15 20:25:42;;;;;;;0.93;0.80;;;;;;;;;;4939661;29;20628;-74
2024/04/15 20:28:09;;;;;;;2.25;1.27;;;;;;;;;;4954647;29;20040;-77
2024/04/15 20:30:36;;;;;;;1.02;1.02;;;;;;;;;;4932425;29;20488;-78
2024/04/15 20:33:02;;;;;;;1.20;1.20;;;;;;;;;;4951214;29;20039;-78
2024/04/15 20:35:28;;;;;;;0.80;0.80;;;;;;;;;;4953568;29;20137;-75
2024/04/15 20:37:55;;;;;;;0.70;0.70;;;;;;;;;;4935311;29;20034;-79
2024/04/15 20:40:21;;;;;;;0.73;0.73;;;;;;;;;;4954590;29;20070;-78
2024/04/15 20:42:48;;;;;;;0.55;0.55;;;;;;;;;;4953533;28;20133;-78
2024/04/15 20:45:14;;;;;;;1.20;1.10;;;;;;;;;;4970118;29;20051;-78
2024/04/15 20:47:40;;;;;;;1.65;0.90;;;;;;;;;;4972634;28;20043;-78
2024/04/15 20:50:06;;;;;;;1.00;1.00;;;;;;;;;;4973476;29;20047;-77
2024/04/15 20:52:31;;;;;;;0.93;0.93;;;;;;;;;;4972553;29;20031;-77
2024/04/15 20:54:57;;;;;;;0.90;0.90;;;;;;;;;;4974166;28;20054;-79
2024/04/15 20:57:23;;;;;;;0.90;0.90;;;;;;;;;;4979005;28;20120;-73
2024/04/15 20:59:49;;;;;;;0.80;0.80;;;;;;;;;;4939940;29;20059;-73
2024/04/15 21:02:15;;;;;;;0.95;0.95;;;;;;;;;;4957571;29;20511;-73
2024/04/15 21:04:41;;;;;;;0.60;0.60;;;;;;;;;;4938728;29;20051;-73
2024/04/15 21:07:06;;;;;;;2.25;0.90;;;;;;;;;;4958345;29;20063;-73
2024/04/15 21:09:32;;;;;;;0.80;0.80;;;;;;;;;;4956376;29;20102;-73
2024/04/15 21:12:01;;;;;;;0.80;0.80;;;;;;;;;;4956357;29;20042;-73
2024/04/15 21:14:27;;;;;;;6.65;0.90;;;;;;;;;;4954121;29;20114;-74
2024/04/15 21:16:54;;;;;;;1.10;1.02;;;;;;;;;;4931309;29;20044;-73
2024/04/15 21:19:20;;;;;;;0.70;0.70;;;;;;;;;;4933220;29;20063;-73
2024/04/15 21:21:46;;;;;;;0.90;0.90;;;;;;;;;;4932558;29;20054;-73
2024/04/15 21:24:12;;;;;;;0.60;0.60;;;;;;;;;;4932210;29;20174;-73
2024/04/15 21:26:38;;;;;;;0.82;0.82;;;;;;;;;;4935132;29;20141;-73
2024/04/15 21:29:04;;;;;;;0.82;0.73;;;;;;;;;;4951920;29;20053;-73
2024/04/15 21:31:30;;;;;;;0.80;0.80;;;;;;;;;;4934986;29;20039;-73
2024/04/15 21:33:57;;;;;;;1.08;0.90;;;;;;;;;;4950738;29;20059;-73
2024/04/15 21:36:23;;;;;;;2.47;1.00;;;;;;;;;;4952037;29;20106;-73
2024/04/15 21:38:48;;;;;;;0.90;0.90;;;;;;;;;;4951751;29;20794;-73
2024/04/15 21:41:15;;;;;;;0.60;0.60;;;;;;;;;;4952179;29;20126;-73
2024/04/15 21:43:40;;;;;;;1.25;1.25;;;;;;;;;;4934080;29;20558;-72
2024/04/15 21:46:09;;;;;;;1.17;1.10;;;;;;;;;;4956554;28;20050;-72
2024/04/15 21:48:35;;;;;;;0.95;0.95;;;;;;;;;;4942170;28;20504;-72
2024/04/15 21:51:01;;;;;;;1.00;1.00;;;;;;;;;;4942470;28;20054;-72
2024/04/15 21:53:27;;;;;;;0.90;0.90;;;;;;;;;;4955943;28;20043;-71
2024/04/15 21:55:53;;;;;;;0.90;0.90;;;;;;;;;;4933888;29;20141;-72
2024/04/15 21:58:19;;;;;;;1.13;0.95;;;;;;;;;;4933840;29;20397;-72
2024/04/15 22:00:44;;;;;;;1.27;1.20;;;;;;;;;;4951222;29;20297;-72
2024/04/15 22:03:10;;;;;;;1.00;1.00;;;;;;;;;;4932941;29;20106;-72
2024/04/15 22:05:36;;;;;;;1.08;1.08;;;;;;;;;;4951250;29;20101;-72
2024/04/15 22:08:04;;;;;;;1.30;1.20;;;;;;;;;;4950875;29;20036;-72
2024/04/15 22:10:30;;;;;;;1.40;0.88;;;;;;;;;;4934074;29;20043;-72
2024/04/15 22:12:56;;;;;;;1.10;1.10;;;;;;;;;;4949874;29;20106;-72
2024/04/15 22:15:22;;;;;;;1.10;1.10;;;;;;;;;;4952261;29;20504;-72
2024/04/15 22:17:48;;;;;;;1.50;1.40;;;;;;;;;;4934846;29;20181;-73
2024/04/15 22:20:14;;;;;;;1.10;1.10;;;;;;;;;;4933988;29;20141;-73
2024/04/15 22:22:39;;;;;;;0.77;0.77;;;;;;;;;;4950177;28;20043;-72
2024/04/15 22:25:05;;;;;;;0.80;0.80;;;;;;;;;;4950938;29;20047;-73
2024/04/15 22:27:32;;;;;;;1.48;1.02;;;;;;;;;;4933934;29;20647;-73
2024/04/15 22:29:58;;;;;;;0.70;0.70;;;;;;;;;;4950808;29;20050;-73
2024/04/15 22:32:24;;;;;;;1.10;1.08;;;;;;;;;;4951632;29;20031;-73
2024/04/15 22:34:50;;;;;;;1.10;1.10;;;;;;;;;;4934352;29;20054;-73
2024/04/15 22:37:15;;;;;;;0.88;0.88;;;;;;;;;;4924671;29;20036;-73
2024/04/15 22:39:42;;;;;;;9.35;1.17;;;;;;;;;;4942293;29;20053;-73
2024/04/15 22:42:08;;;;;;;1.27;1.17;;;;;;;;;;4950713;29;20040;-72
2024/04/15 22:44:34;;;;;;;1.17;1.17;;;;;;;;;;4950084;29;20059;-72
2024/04/15 22:47:00;;;;;;;1.15;1.15;;;;;;;;;;4950600;29;20383;-73
2024/04/15 22:49:26;;;;;;;1.15;1.00;;;;;;;;;;4934655;29;20547;-73
2024/04/15 22:51:52;;;;;;;3.03;1.02;;;;;;;;;;4952005;29;20035;-72
2024/04/15 22:54:18;;;;;;;0.65;0.65;;;;;;;;;;4951204;28;20048;-73
2024/04/15 22:56:44;;;;;;;0.70;0.70;;;;;;;;;;4950908;29;20039;-73
2024/04/15 22:59:11;;;;;;;0.82;0.82;;;;;;;;;;4950434;29;20138;-73
2024/04/15 23:01:37;;;;;;;2.53;1.10;;;;;;;;;;4935691;28;20512;-73
2024/04/15 23:04:03;;;;;;;1.27;1.27;;;;;;;;;;4934044;29;20043;-72
2024/04/15 23:06:29;;;;;;;1.40;1.30;;;;;;;;;;4951399;28;20082;-72
2024/04/15 23:08:55;;;;;;;1.60;1.00;;;;;;;;;;4933377;29;20039;-72
2024/04/15 23:11:21;;;;;;;1.65;1.33;;;;;;;;;;4936225;29;20521;-71
2024/04/15 23:13:48;;;;;;;1.45;1.35;;;;;;;;;;4904181;29;20476;-72
2024/04/15 23:16:14;;;;;;;1.45;1.13;;;;;;;;;;4953991;29;20035;-72
2024/04/15 23:18:40;;;;;;;0.90;0.90;;;;;;;;;;4936944;29;20046;-71
2024/04/15 23:21:06;;;;;;;1.58;1.30;;;;;;;;;;4937524;28;20073;-71